Time;durP1;ratioP1;P1;durP2;ratioP2;P2;SDS_P1;SDS_P2;PMS_P1;PMS_P2;Temp;Humidity;BMP_temperature;BMP_pressure;BME280_temperature;BME280_humidity;BME280_pressure;Samples;Min_cycle;Max_cycle;Signal;HPM_P1;HPM_P2
2022/05/14 00:01:48;;;;;;;10.17;3.13;;;;;;;;;;5012227;28;20654;-71
2022/05/14 00:04:13;;;;;;;14.33;3.67;;;;;;;;;;5008967;28;20190;-71
2022/05/14 00:06:39;;;;;;;10.03;4.07;;;;;;;;;;5012854;28;20205;-71
2022/05/14 00:09:05;;;;;;;10.70;3.73;;;;;;;;;;5010024;28;20179;-71
2022/05/14 00:14:14;;;;;;;12.90;3.83;;;;;;;;;;5010960;28;20605;-71
2022/05/14 00:16:40;;;;;;;14.80;3.30;;;;;;;;;;5017162;28;20299;-71
2022/05/14 00:19:06;;;;;;;8.10;3.10;;;;;;;;;;5018340;28;20668;-71
2022/05/14 00:21:32;;;;;;;15.93;4.80;;;;;;;;;;5011710;28;20225;-71
2022/05/14 00:23:58;;;;;;;16.37;5.50;;;;;;;;;;5015316;28;20562;-71
2022/05/14 00:26:23;;;;;;;11.67;4.47;;;;;;;;;;5012896;28;20575;-70
2022/05/14 00:28:48;;;;;;;8.67;3.50;;;;;;;;;;5014802;28;20178;-73
2022/05/14 00:31:14;;;;;;;13.53;3.97;;;;;;;;;;5007851;28;20501;-70
2022/05/14 00:33:39;;;;;;;8.17;3.60;;;;;;;;;;5011865;28;20633;-70
2022/05/14 00:36:04;;;;;;;17.57;3.80;;;;;;;;;;5015351;28;20179;-70
2022/05/14 00:38:30;;;;;;;14.33;4.67;;;;;;;;;;5011064;28;20187;-70
2022/05/14 00:41:00;;;;;;;7.70;3.97;;;;;;;;;;5016023;28;20273;-70
2022/05/14 00:43:26;;;;;;;7.00;3.10;;;;;;;;;;5010553;28;20548;-70
2022/05/14 00:45:53;;;;;;;7.43;3.47;;;;;;;;;;5019265;28;20261;-70
2022/05/14 00:48:18;;;;;;;9.63;3.53;;;;;;;;;;5020602;28;20340;-70
2022/05/14 00:50:52;;;;;;;11.13;3.67;;;;;;;;;;5012661;28;20210;-70
2022/05/14 00:53:34;;;;;;;7.57;3.33;;;;;;;;;;5012636;28;20198;-70
2022/05/14 00:56:02;;;;;;;9.20;3.37;;;;;;;;;;5011543;28;20251;-72
2022/05/14 00:58:42;;;;;;;11.07;4.23;;;;;;;;;;5005713;28;20259;-72
2022/05/14 01:01:08;;;;;;;12.53;4.17;;;;;;;;;;5013368;28;20202;-70
2022/05/14 01:03:33;;;;;;;12.50;4.07;;;;;;;;;;5012929;28;20237;-70
2022/05/14 01:06:00;;;;;;;10.77;4.30;;;;;;;;;;5015143;28;20215;-71
2022/05/14 01:08:25;;;;;;;15.73;6.50;;;;;;;;;;5014383;28;20221;-70
2022/05/14 01:10:52;;;;;;;9.80;4.10;;;;;;;;;;5017138;28;20199;-70
2022/05/14 01:13:17;;;;;;;16.37;7.07;;;;;;;;;;5011781;28;20179;-70
2022/05/14 01:15:48;;;;;;;10.93;5.20;;;;;;;;;;5015875;28;20645;-70
2022/05/14 01:18:13;;;;;;;9.47;5.07;;;;;;;;;;5012458;28;20179;-72
2022/05/14 01:20:38;;;;;;;13.70;5.53;;;;;;;;;;5016874;28;20711;-69
2022/05/14 01:23:11;;;;;;;9.07;5.10;;;;;;;;;;5014462;28;20183;-72
2022/05/14 01:28:29;;;;;;;19.10;6.70;;;;;;;;;;5005479;28;20241;-71
2022/05/14 01:30:59;;;;;;;15.97;6.73;;;;;;;;;;5019318;28;20195;-71
2022/05/14 01:33:24;;;;;;;10.30;5.93;;;;;;;;;;5016890;28;20179;-71
2022/05/14 01:35:50;;;;;;;11.67;6.43;;;;;;;;;;5010636;28;20183;-71
2022/05/14 01:38:15;;;;;;;12.40;6.00;;;;;;;;;;5012658;28;20223;-71
2022/05/14 01:40:40;;;;;;;12.97;5.80;;;;;;;;;;5016177;28;20202;-71
2022/05/14 01:43:06;;;;;;;15.47;6.30;;;;;;;;;;5016759;28;20233;-71
2022/05/14 01:45:32;;;;;;;11.17;4.77;;;;;;;;;;5017275;28;20314;-71
2022/05/14 01:47:57;;;;;;;17.80;5.70;;;;;;;;;;5015984;28;20185;-71
2022/05/14 01:50:22;;;;;;;13.17;5.77;;;;;;;;;;5011675;28;21829;-71
2022/05/14 01:52:47;;;;;;;9.83;5.40;;;;;;;;;;5014199;28;20226;-71
2022/05/14 01:55:12;;;;;;;9.83;4.47;;;;;;;;;;5016106;28;20174;-71
2022/05/14 01:57:37;;;;;;;9.30;4.97;;;;;;;;;;5027563;28;20171;-72
2022/05/14 02:00:06;;;;;;;9.37;4.70;;;;;;;;;;5013701;28;20229;-72
2022/05/14 02:02:31;;;;;;;11.97;4.17;;;;;;;;;;5010117;28;20179;-70
2022/05/14 02:04:57;;;;;;;12.87;5.13;;;;;;;;;;5015007;28;20301;-70
2022/05/14 02:07:22;;;;;;;10.70;4.47;;;;;;;;;;5016135;28;20688;-72
2022/05/14 02:09:47;;;;;;;9.73;5.17;;;;;;;;;;5011150;28;20667;-70
2022/05/14 02:12:12;;;;;;;7.50;4.57;;;;;;;;;;5012376;28;20202;-72
2022/05/14 02:14:37;;;;;;;6.77;4.23;;;;;;;;;;5014270;28;20629;-70
2022/05/14 02:17:03;;;;;;;11.17;4.93;;;;;;;;;;5018179;28;20264;-71
2022/05/14 02:19:28;;;;;;;10.40;4.00;;;;;;;;;;5017494;28;20354;-71
2022/05/14 02:21:53;;;;;;;10.80;4.57;;;;;;;;;;5014737;28;20203;-71
2022/05/14 02:24:18;;;;;;;8.77;4.27;;;;;;;;;;5010935;28;20229;-71
2022/05/14 02:26:43;;;;;;;11.70;4.87;;;;;;;;;;5014658;28;20191;-70
2022/05/14 02:29:09;;;;;;;11.47;5.03;;;;;;;;;;5027936;28;20178;-70
2022/05/14 02:31:34;;;;;;;11.37;4.57;;;;;;;;;;5014724;28;20198;-71
2022/05/14 02:33:59;;;;;;;12.27;4.60;;;;;;;;;;5016719;28;20269;-71
2022/05/14 02:36:24;;;;;;;8.93;5.47;;;;;;;;;;5016308;28;20179;-71
2022/05/14 02:38:49;;;;;;;8.20;4.97;;;;;;;;;;5010875;28;20175;-72
2022/05/14 02:41:14;;;;;;;17.80;5.60;;;;;;;;;;5006985;28;20605;-70
2022/05/14 02:43:40;;;;;;;12.80;5.67;;;;;;;;;;5010571;28;20209;-70
2022/05/14 02:46:06;;;;;;;14.80;6.43;;;;;;;;;;5014018;28;20270;-70
2022/05/14 02:48:32;;;;;;;16.97;5.97;;;;;;;;;;5009285;28;20210;-70
2022/05/14 02:50:57;;;;;;;15.40;5.93;;;;;;;;;;5009088;28;20246;-72
2022/05/14 02:53:22;;;;;;;8.73;5.33;;;;;;;;;;5008965;28;20190;-73
2022/05/14 02:55:48;;;;;;;16.40;6.30;;;;;;;;;;5013897;28;20174;-70
2022/05/14 02:58:13;;;;;;;11.53;5.23;;;;;;;;;;5015268;28;20687;-71
2022/05/14 03:00:38;;;;;;;11.10;5.53;;;;;;;;;;5010526;28;20564;-70
2022/05/14 03:03:03;;;;;;;12.47;6.20;;;;;;;;;;5010588;28;20226;-70
2022/05/14 03:05:28;;;;;;;17.90;6.23;;;;;;;;;;5011806;28;20178;-73
2022/05/14 03:07:54;;;;;;;17.83;6.60;;;;;;;;;;5027231;28;20174;-71
2022/05/14 03:10:19;;;;;;;16.80;6.70;;;;;;;;;;5024385;28;20518;-70
2022/05/14 03:12:44;;;;;;;13.00;7.23;;;;;;;;;;5022885;28;20183;-70
2022/05/14 03:15:11;;;;;;;15.33;8.03;;;;;;;;;;5010745;28;20186;-71
2022/05/14 03:17:36;;;;;;;14.13;7.43;;;;;;;;;;5015317;28;20178;-70
2022/05/14 03:20:06;;;;;;;13.90;7.80;;;;;;;;;;5010999;28;20175;-70
2022/05/14 03:22:31;;;;;;;20.40;7.50;;;;;;;;;;5022208;28;20186;-70
2022/05/14 03:24:56;;;;;;;20.30;8.83;;;;;;;;;;5024310;28;20187;-71
2022/05/14 03:27:21;;;;;;;12.60;7.90;;;;;;;;;;5011685;28;20214;-71
2022/05/14 03:29:46;;;;;;;19.00;8.97;;;;;;;;;;5014036;28;20174;-71
2022/05/14 03:32:11;;;;;;;18.27;9.63;;;;;;;;;;5015148;28;20202;-70
2022/05/14 03:34:37;;;;;;;24.53;9.73;;;;;;;;;;5009985;28;20179;-71
2022/05/14 03:37:02;;;;;;;22.40;10.73;;;;;;;;;;5010756;28;20282;-71
2022/05/14 03:39:27;;;;;;;21.17;10.73;;;;;;;;;;5013040;28;20683;-71
2022/05/14 03:41:53;;;;;;;22.87;11.00;;;;;;;;;;5012310;28;20195;-72
2022/05/14 03:44:18;;;;;;;17.07;10.47;;;;;;;;;;5013015;28;20667;-72
2022/05/14 03:46:43;;;;;;;18.17;11.17;;;;;;;;;;5010676;28;20294;-72
2022/05/14 03:49:09;;;;;;;19.17;11.00;;;;;;;;;;5009980;28;20175;-72
2022/05/14 03:51:34;;;;;;;25.37;11.47;;;;;;;;;;5013567;28;20229;-71
2022/05/14 03:54:00;;;;;;;21.10;11.57;;;;;;;;;;5011888;28;20179;-72
2022/05/14 03:56:25;;;;;;;25.57;12.20;;;;;;;;;;5011742;28;20265;-70
2022/05/14 03:58:51;;;;;;;22.93;10.70;;;;;;;;;;5009381;28;20191;-71
2022/05/14 04:01:16;;;;;;;22.33;10.47;;;;;;;;;;5012614;28;20313;-72
2022/05/14 04:03:41;;;;;;;18.60;11.10;;;;;;;;;;5014329;28;20178;-72
2022/05/14 04:06:06;;;;;;;26.17;10.97;;;;;;;;;;5020268;28;20221;-72
2022/05/14 04:08:32;;;;;;;26.50;11.83;;;;;;;;;;5011879;28;20599;-69
2022/05/14 04:10:57;;;;;;;23.00;11.00;;;;;;;;;;5009519;28;20268;-72
2022/05/14 04:13:22;;;;;;;20.73;11.50;;;;;;;;;;5012778;28;20183;-72
2022/05/14 04:15:48;;;;;;;23.60;11.13;;;;;;;;;;5016240;28;20565;-71
2022/05/14 04:18:13;;;;;;;26.07;11.33;;;;;;;;;;5017679;28;20190;-72
2022/05/14 04:20:38;;;;;;;27.33;12.97;;;;;;;;;;5013593;28;20297;-71
2022/05/14 04:23:04;;;;;;;25.40;11.80;;;;;;;;;;5013179;28;20194;-69
2022/05/14 04:25:29;;;;;;;26.93;12.43;;;;;;;;;;5016112;28;20236;-73
2022/05/14 04:27:55;;;;;;;30.87;14.30;;;;;;;;;;5026908;28;20170;-73
2022/05/14 04:30:20;;;;;;;25.07;13.83;;;;;;;;;;5012028;28;20328;-72
2022/05/14 04:32:45;;;;;;;25.87;13.73;;;;;;;;;;5026340;28;20185;-72
2022/05/14 04:35:12;;;;;;;31.30;12.90;;;;;;;;;;5014337;28;20245;-72
2022/05/14 04:37:37;;;;;;;23.50;12.30;;;;;;;;;;5008584;28;20186;-71
2022/05/14 04:40:04;;;;;;;22.87;13.00;;;;;;;;;;5009520;28;20182;-70
2022/05/14 04:42:29;;;;;;;29.70;12.47;;;;;;;;;;5003585;28;20183;-70
2022/05/14 04:44:55;;;;;;;23.03;13.20;;;;;;;;;;5012826;28;20185;-72
2022/05/14 04:47:20;;;;;;;26.97;13.40;;;;;;;;;;5012822;28;20214;-71
2022/05/14 04:49:46;;;;;;;23.27;13.47;;;;;;;;;;5013643;28;20688;-72
2022/05/14 04:52:12;;;;;;;28.90;14.10;;;;;;;;;;5031927;28;20218;-72
2022/05/14 04:54:37;;;;;;;28.07;13.17;;;;;;;;;;5016174;28;20187;-72
2022/05/14 04:57:03;;;;;;;29.63;13.23;;;;;;;;;;5012214;28;20171;-71
2022/05/14 04:59:28;;;;;;;34.13;14.50;;;;;;;;;;5016060;28;20183;-72
2022/05/14 05:04:40;;;;;;;25.47;13.20;;;;;;;;;;5018415;28;20237;-72
2022/05/14 05:07:06;;;;;;;24.50;12.30;;;;;;;;;;5012280;28;20211;-70
2022/05/14 05:09:32;;;;;;;27.40;13.83;;;;;;;;;;5019617;28;20261;-70
2022/05/14 05:11:57;;;;;;;26.83;14.33;;;;;;;;;;5020127;28;20274;-72
2022/05/14 05:14:22;;;;;;;28.93;13.13;;;;;;;;;;5018045;28;20318;-72
2022/05/14 05:16:47;;;;;;;21.37;12.07;;;;;;;;;;5038959;28;20270;-72
2022/05/14 05:19:13;;;;;;;22.40;13.13;;;;;;;;;;5018119;28;20206;-73
2022/05/14 05:21:39;;;;;;;23.60;12.60;;;;;;;;;;5017178;28;20236;-71
2022/05/14 05:24:05;;;;;;;26.67;12.23;;;;;;;;;;5014276;28;20190;-71
2022/05/14 05:26:31;;;;;;;28.80;11.70;;;;;;;;;;5013705;28;20619;-71
2022/05/14 05:28:56;;;;;;;22.00;12.80;;;;;;;;;;5019002;28;20179;-72
2022/05/14 05:31:21;;;;;;;21.93;11.63;;;;;;;;;;5013114;28;20206;-71
2022/05/14 05:33:46;;;;;;;20.33;11.27;;;;;;;;;;5019638;28;20269;-70
2022/05/14 05:36:12;;;;;;;24.20;11.77;;;;;;;;;;5012143;28;20175;-72
2022/05/14 05:38:37;;;;;;;18.95;11.48;;;;;;;;;;5012692;28;21028;-72
2022/05/14 05:41:03;;;;;;;16.77;10.95;;;;;;;;;;5014299;28;20205;-72
2022/05/14 05:43:28;;;;;;;21.63;12.35;;;;;;;;;;5015695;28;20194;-70
2022/05/14 05:45:53;;;;;;;17.13;10.88;;;;;;;;;;5012575;28;20199;-70
2022/05/14 05:48:18;;;;;;;22.33;10.90;;;;;;;;;;5014491;28;20197;-72
2022/05/14 05:50:48;;;;;;;20.35;11.25;;;;;;;;;;5016193;28;20844;-71
2022/05/14 05:53:14;;;;;;;21.23;11.05;;;;;;;;;;5023323;28;20599;-70
2022/05/14 05:58:23;;;;;;;19.67;10.00;;;;;;;;;;5010740;28;20182;-73
2022/05/14 06:00:48;;;;;;;24.23;11.90;;;;;;;;;;5011787;28;20199;-70
2022/05/14 06:03:13;;;;;;;15.82;9.73;;;;;;;;;;5015150;28;20879;-72
2022/05/14 06:05:38;;;;;;;22.63;10.73;;;;;;;;;;5013007;28;20669;-72
2022/05/14 06:08:11;;;;;;;18.58;10.07;;;;;;;;;;5017661;28;20180;-72
2022/05/14 06:10:36;;;;;;;25.20;10.45;;;;;;;;;;5009739;28;20203;-72
2022/05/14 06:13:02;;;;;;;21.38;11.18;;;;;;;;;;5012755;28;20175;-72
2022/05/14 06:15:27;;;;;;;21.35;10.73;;;;;;;;;;5011755;28;20179;-71
2022/05/14 06:17:52;;;;;;;22.50;10.52;;;;;;;;;;5019073;28;20255;-72
2022/05/14 06:20:18;;;;;;;26.50;12.65;;;;;;;;;;5014267;28;20230;-69
2022/05/14 06:22:43;;;;;;;20.15;9.60;;;;;;;;;;5009200;28;20175;-71
2022/05/14 06:25:09;;;;;;;15.82;9.00;;;;;;;;;;5010773;28;20202;-70
2022/05/14 06:27:34;;;;;;;17.02;9.00;;;;;;;;;;5015198;28;20297;-72
2022/05/14 06:29:59;;;;;;;21.37;8.73;;;;;;;;;;5013849;28;20233;-72
2022/05/14 06:32:24;;;;;;;19.08;9.10;;;;;;;;;;5014200;28;20425;-72
2022/05/14 06:34:50;;;;;;;19.60;8.75;;;;;;;;;;5014293;28;20179;-71
2022/05/14 06:37:15;;;;;;;18.92;9.82;;;;;;;;;;5011926;28;20577;-71
2022/05/14 06:39:41;;;;;;;18.10;9.23;;;;;;;;;;5018518;28;20560;-72
2022/05/14 06:42:06;;;;;;;16.80;8.70;;;;;;;;;;5012705;28;20238;-72
2022/05/14 06:44:31;;;;;;;15.18;8.60;;;;;;;;;;5017715;28;20186;-70
2022/05/14 06:46:56;;;;;;;18.10;9.07;;;;;;;;;;5018325;28;20202;-70
2022/05/14 06:49:22;;;;;;;19.83;8.05;;;;;;;;;;5018121;28;20209;-71
2022/05/14 06:51:47;;;;;;;18.43;8.30;;;;;;;;;;5018525;28;20219;-71
2022/05/14 06:54:13;;;;;;;18.17;8.02;;;;;;;;;;5015249;28;20470;-72
2022/05/14 06:56:41;;;;;;;15.90;9.30;;;;;;;;;;5029569;28;20679;-71
2022/05/14 06:59:06;;;;;;;14.98;7.93;;;;;;;;;;5014433;28;20186;-71
2022/05/14 07:01:31;;;;;;;17.20;8.02;;;;;;;;;;4999756;28;20204;-71
2022/05/14 07:06:42;;;;;;;14.55;8.27;;;;;;;;;;5014186;28;20232;-71
2022/05/14 07:09:16;;;;;;;14.13;7.60;;;;;;;;;;5012027;28;20199;-71
2022/05/14 07:11:42;;;;;;;16.05;7.57;;;;;;;;;;5004987;28;20199;-71
2022/05/14 07:14:07;;;;;;;14.02;7.25;;;;;;;;;;5009532;28;20950;-71
2022/05/14 07:16:33;;;;;;;18.80;7.72;;;;;;;;;;5014288;28;20181;-71
2022/05/14 07:18:58;;;;;;;17.42;8.65;;;;;;;;;;5029587;28;20178;-71
2022/05/14 07:21:24;;;;;;;16.58;8.00;;;;;;;;;;5014302;28;22337;-71
2022/05/14 07:23:49;;;;;;;17.03;8.63;;;;;;;;;;5009314;28;20312;-70
2022/05/14 07:26:14;;;;;;;17.23;7.67;;;;;;;;;;5015910;28;20447;-70
2022/05/14 07:28:39;;;;;;;22.25;8.52;;;;;;;;;;5014518;28;20433;-71
2022/05/14 07:31:04;;;;;;;23.52;9.90;;;;;;;;;;5018216;28;20206;-71
2022/05/14 07:33:30;;;;;;;15.52;7.30;;;;;;;;;;5010587;28;20175;-71
2022/05/14 07:35:57;;;;;;;12.35;6.80;;;;;;;;;;5008515;28;20565;-71
2022/05/14 07:38:23;;;;;;;15.18;6.68;;;;;;;;;;5009449;28;20563;-70
2022/05/14 07:40:48;;;;;;;16.33;6.70;;;;;;;;;;5010770;28;20194;-71
2022/05/14 07:43:16;;;;;;;15.68;6.40;;;;;;;;;;5009449;28;20234;-71
2022/05/14 07:45:42;;;;;;;16.83;6.57;;;;;;;;;;5012442;28;20264;-71
2022/05/14 07:48:09;;;;;;;13.43;6.82;;;;;;;;;;5026198;28;20175;-71
2022/05/14 07:50:35;;;;;;;12.30;5.85;;;;;;;;;;5011963;28;20699;-71
2022/05/14 07:53:02;;;;;;;14.55;5.45;;;;;;;;;;5019535;28;20215;-71
2022/05/14 07:55:27;;;;;;;15.63;6.97;;;;;;;;;;5013321;28;20395;-71
2022/05/14 07:57:53;;;;;;;12.43;5.75;;;;;;;;;;5020897;28;20182;-72
2022/05/14 08:00:18;;;;;;;13.47;5.97;;;;;;;;;;5012565;28;20618;-73
2022/05/14 08:02:44;;;;;;;13.70;5.70;;;;;;;;;;5006367;28;20519;-71
2022/05/14 08:05:10;;;;;;;18.20;5.72;;;;;;;;;;5016458;28;20266;-72
2022/05/14 08:07:36;;;;;;;18.63;7.07;;;;;;;;;;5006837;28;20205;-71
2022/05/14 08:10:02;;;;;;;14.82;5.55;;;;;;;;;;5015299;28;20259;-71
2022/05/14 08:12:33;;;;;;;16.02;6.18;;;;;;;;;;5011354;28;20222;-72
2022/05/14 08:14:59;;;;;;;11.73;4.95;;;;;;;;;;5014347;28;20183;-71
2022/05/14 08:17:26;;;;;;;20.33;5.20;;;;;;;;;;5012843;28;20222;-71
2022/05/14 08:19:51;;;;;;;10.52;4.70;;;;;;;;;;5021279;28;20477;-71
2022/05/14 08:25:00;;;;;;;14.82;5.25;;;;;;;;;;5019569;28;20513;-71
2022/05/14 08:27:25;;;;;;;11.67;4.90;;;;;;;;;;5019675;28;20245;-71
2022/05/14 08:29:51;;;;;;;19.23;5.77;;;;;;;;;;5019557;28;20423;-71
2022/05/14 08:32:20;;;;;;;13.80;5.03;;;;;;;;;;5019743;28;20802;-71
2022/05/14 08:34:45;;;;;;;12.52;4.88;;;;;;;;;;5021436;28;20175;-71
2022/05/14 08:37:11;;;;;;;18.48;5.55;;;;;;;;;;5019831;28;20193;-71
2022/05/14 08:39:37;;;;;;;13.77;4.53;;;;;;;;;;5019174;28;20178;-71
2022/05/14 08:42:02;;;;;;;14.65;4.75;;;;;;;;;;5014052;28;20201;-71
2022/05/14 08:44:30;;;;;;;10.23;4.07;;;;;;;;;;5019542;28;20177;-71
2022/05/14 08:46:56;;;;;;;13.88;4.03;;;;;;;;;;5016872;28;20195;-71
2022/05/14 08:49:26;;;;;;;14.15;5.07;;;;;;;;;;5017553;28;20199;-71
2022/05/14 08:51:52;;;;;;;10.13;4.10;;;;;;;;;;5018310;28;20292;-71
2022/05/14 08:54:18;;;;;;;15.32;4.20;;;;;;;;;;5015158;28;20230;-71
2022/05/14 08:56:57;;;;;;;8.55;3.50;;;;;;;;;;5015959;28;20190;-70
2022/05/14 08:59:22;;;;;;;8.82;3.65;;;;;;;;;;5019282;28;20572;-70
2022/05/14 09:01:48;;;;;;;16.57;4.53;;;;;;;;;;5012703;28;20199;-71
2022/05/14 09:04:17;;;;;;;15.23;4.28;;;;;;;;;;5013632;28;20183;-70
2022/05/14 09:06:43;;;;;;;12.30;4.18;;;;;;;;;;5018758;28;20202;-71
2022/05/14 09:09:09;;;;;;;13.95;4.75;;;;;;;;;;5016467;28;20675;-71
2022/05/14 09:11:40;;;;;;;11.60;3.85;;;;;;;;;;5014031;28;20199;-70
2022/05/14 09:14:16;;;;;;;12.30;3.53;;;;;;;;;;5018252;28;20174;-71
2022/05/14 09:16:41;;;;;;;11.77;3.70;;;;;;;;;;5017114;28;20182;-70
2022/05/14 09:19:13;;;;;;;9.20;3.50;;;;;;;;;;5005632;28;20175;-70
2022/05/14 09:21:47;;;;;;;12.18;3.70;;;;;;;;;;5015655;28;20450;-70
2022/05/14 09:24:18;;;;;;;10.07;3.83;;;;;;;;;;5018205;28;20189;-71
2022/05/14 09:26:43;;;;;;;10.30;4.32;;;;;;;;;;5015007;28;20237;-71
2022/05/14 09:29:33;;;;;;;14.07;4.30;;;;;;;;;;5019262;28;20304;-71
2022/05/14 09:32:00;;;;;;;10.20;3.47;;;;;;;;;;5019067;28;20203;-70
2022/05/14 09:34:26;;;;;;;13.40;4.60;;;;;;;;;;5018419;28;20175;-71
2022/05/14 09:36:52;;;;;;;11.98;4.15;;;;;;;;;;5017363;28;20191;-71
2022/05/14 09:39:23;;;;;;;11.05;4.03;;;;;;;;;;5017473;28;20244;-70
2022/05/14 09:41:50;;;;;;;9.88;3.45;;;;;;;;;;5016175;28;20206;-71
2022/05/14 09:44:18;;;;;;;10.57;4.05;;;;;;;;;;5018698;28;20190;-71
2022/05/14 09:46:43;;;;;;;9.52;4.03;;;;;;;;;;5014452;28;20734;-71
2022/05/14 09:49:09;;;;;;;13.83;4.20;;;;;;;;;;5017446;28;20190;-71
2022/05/14 09:51:51;;;;;;;16.13;4.40;;;;;;;;;;5015390;28;20675;-71
2022/05/14 09:54:25;;;;;;;12.98;4.43;;;;;;;;;;5018198;28;20202;-71
2022/05/14 09:57:05;;;;;;;11.32;3.53;;;;;;;;;;5015147;28;20178;-71
2022/05/14 09:59:42;;;;;;;11.25;3.78;;;;;;;;;;5018034;28;20253;-71
2022/05/14 10:02:14;;;;;;;11.45;4.15;;;;;;;;;;5017172;28;20247;-71
2022/05/14 10:05:06;;;;;;;10.63;3.88;;;;;;;;;;5018767;28;20261;-71
2022/05/14 10:07:43;;;;;;;9.77;3.65;;;;;;;;;;4992822;28;20309;-71
2022/05/14 10:10:27;;;;;;;12.38;4.13;;;;;;;;;;5013755;28;20191;-71
2022/05/14 10:12:57;;;;;;;15.98;4.95;;;;;;;;;;5014381;28;20178;-71
2022/05/14 10:15:31;;;;;;;13.43;4.68;;;;;;;;;;5013604;28;20179;-71
2022/05/14 10:17:59;;;;;;;12.73;4.05;;;;;;;;;;5011957;28;20182;-71
2022/05/14 10:20:24;;;;;;;13.38;4.97;;;;;;;;;;5011163;28;20366;-71
2022/05/14 10:28:49;;;;;;;10.55;3.92;;;;;;;;;;5013463;28;20181;-71
2022/05/14 10:31:25;;;;;;;12.50;3.75;;;;;;;;;;5016778;28;20229;-71
2022/05/14 10:33:51;;;;;;;11.55;4.35;;;;;;;;;;4994989;28;20175;-71
2022/05/14 10:36:19;;;;;;;11.32;3.92;;;;;;;;;;5012027;28;20281;-71
2022/05/14 10:38:45;;;;;;;10.43;3.72;;;;;;;;;;5011038;28;20645;-71
2022/05/14 10:41:11;;;;;;;13.18;3.50;;;;;;;;;;5004327;28;20206;-71
2022/05/14 10:43:53;;;;;;;12.68;3.60;;;;;;;;;;5001990;28;20171;-71
2022/05/14 10:46:20;;;;;;;13.18;3.92;;;;;;;;;;5008569;28;20214;-71
2022/05/14 10:49:09;;;;;;;12.38;3.45;;;;;;;;;;5010514;28;20760;-71
2022/05/14 10:51:42;;;;;;;10.40;3.85;;;;;;;;;;5015579;28;20703;-71
2022/05/14 10:54:11;;;;;;;9.40;3.78;;;;;;;;;;5016594;28;20675;-71
2022/05/14 10:56:37;;;;;;;13.05;3.60;;;;;;;;;;5016410;28;20258;-71
2022/05/14 10:59:05;;;;;;;11.82;3.47;;;;;;;;;;5016244;28;20615;-71
2022/05/14 11:01:30;;;;;;;10.98;4.68;;;;;;;;;;5015573;28;20202;-71
2022/05/14 11:03:57;;;;;;;10.15;3.53;;;;;;;;;;5019950;28;20185;-71
2022/05/14 11:06:30;;;;;;;15.63;3.38;;;;;;;;;;5013968;28;20298;-71
2022/05/14 11:08:55;;;;;;;14.07;4.22;;;;;;;;;;5011948;28;20183;-71
2022/05/14 11:11:27;;;;;;;10.70;3.25;;;;;;;;;;5007757;28;20566;-71
2022/05/14 11:14:01;;;;;;;8.90;4.07;;;;;;;;;;5006064;28;20225;-71
2022/05/14 11:16:43;;;;;;;12.27;3.53;;;;;;;;;;5010186;28;20179;-71
2022/05/14 11:19:09;;;;;;;11.63;3.70;;;;;;;;;;5013106;28;20182;-71
2022/05/14 11:21:36;;;;;;;9.05;3.78;;;;;;;;;;5012713;28;20300;-71
2022/05/14 11:24:02;;;;;;;12.48;3.45;;;;;;;;;;5011366;28;20317;-71
2022/05/14 11:26:28;;;;;;;15.20;4.43;;;;;;;;;;5009881;28;20290;-71
2022/05/14 11:29:00;;;;;;;12.90;3.70;;;;;;;;;;5006778;28;20653;-70
2022/05/14 11:31:29;;;;;;;11.68;3.70;;;;;;;;;;5003105;28;20203;-70
2022/05/14 11:33:56;;;;;;;7.97;3.42;;;;;;;;;;5012037;28;20167;-70
2022/05/14 11:36:24;;;;;;;13.57;4.07;;;;;;;;;;5010378;28;20274;-71
2022/05/14 11:39:05;;;;;;;9.68;3.40;;;;;;;;;;5011854;28;20181;-71
2022/05/14 11:41:35;;;;;;;16.60;5.38;;;;;;;;;;5010147;28;20221;-71
2022/05/14 11:44:02;;;;;;;8.75;3.45;;;;;;;;;;5019705;28;20182;-71
2022/05/14 11:46:40;;;;;;;10.38;3.65;;;;;;;;;;5012393;28;20198;-71
2022/05/14 11:49:24;;;;;;;10.88;3.70;;;;;;;;;;5008602;28;20667;-71
2022/05/14 11:52:22;;;;;;;12.63;4.25;;;;;;;;;;5009147;28;20219;-70
2022/05/14 11:54:58;;;;;;;11.95;3.60;;;;;;;;;;4969303;28;20198;-71
2022/05/14 11:57:29;;;;;;;10.77;3.95;;;;;;;;;;5015658;28;20402;-71
2022/05/14 11:59:54;;;;;;;9.98;3.40;;;;;;;;;;5012684;28;20190;-71
2022/05/14 12:02:22;;;;;;;10.40;3.53;;;;;;;;;;5011867;28;20182;-71
2022/05/14 12:04:50;;;;;;;9.15;3.35;;;;;;;;;;5019998;28;20187;-71
2022/05/14 12:07:31;;;;;;;11.23;3.83;;;;;;;;;;5010553;28;20270;-71
2022/05/14 12:09:56;;;;;;;11.48;3.53;;;;;;;;;;5006239;28;20571;-71
2022/05/14 12:12:35;;;;;;;13.17;4.07;;;;;;;;;;5008092;28;20189;-71
2022/05/14 12:15:12;;;;;;;10.18;4.00;;;;;;;;;;5002392;28;20411;-71
2022/05/14 12:17:37;;;;;;;9.95;3.50;;;;;;;;;;5003422;28;21016;-71
2022/05/14 12:20:03;;;;;;;14.63;4.10;;;;;;;;;;5005673;28;20190;-72
2022/05/14 12:22:32;;;;;;;9.85;3.75;;;;;;;;;;5001495;28;20270;-71
2022/05/14 12:25:02;;;;;;;26.45;3.85;;;;;;;;;;5005050;28;20712;-71
2022/05/14 12:27:28;;;;;;;14.32;3.75;;;;;;;;;;5003216;28;20210;-71
2022/05/14 12:29:55;;;;;;;10.63;4.00;;;;;;;;;;5009007;28;20535;-71
2022/05/14 12:35:24;;;;;;;11.50;4.15;;;;;;;;;;5004275;28;20194;-71
2022/05/14 12:37:52;;;;;;;10.02;3.60;;;;;;;;;;5004949;28;21195;-71
2022/05/14 12:40:19;;;;;;;7.70;3.38;;;;;;;;;;5005261;28;21526;-71
2022/05/14 12:42:44;;;;;;;10.48;4.20;;;;;;;;;;5003570;28;20220;-71
2022/05/14 12:45:10;;;;;;;11.10;4.00;;;;;;;;;;5004676;28;20352;-71
2022/05/14 12:47:37;;;;;;;13.27;4.20;;;;;;;;;;5019442;28;20211;-71
2022/05/14 12:50:03;;;;;;;9.63;3.92;;;;;;;;;;5005583;28;21690;-71
2022/05/14 12:52:32;;;;;;;8.50;4.13;;;;;;;;;;5005716;28;20205;-71
2022/05/14 12:55:00;;;;;;;12.32;4.13;;;;;;;;;;5005310;28;20810;-71
2022/05/14 12:57:26;;;;;;;12.88;4.32;;;;;;;;;;5004379;28;20298;-71
2022/05/14 12:59:52;;;;;;;13.13;3.85;;;;;;;;;;5004733;28;20653;-71
2022/05/14 13:02:20;;;;;;;10.93;3.80;;;;;;;;;;5008290;28;20210;-71
2022/05/14 13:04:59;;;;;;;15.45;4.45;;;;;;;;;;5003535;28;20269;-71
2022/05/14 13:07:25;;;;;;;8.75;4.38;;;;;;;;;;5000447;28;20197;-72
2022/05/14 13:09:51;;;;;;;8.95;4.22;;;;;;;;;;5003866;28;20182;-71
2022/05/14 13:12:18;;;;;;;12.05;3.90;;;;;;;;;;5002974;28;20203;-71
2022/05/14 13:14:48;;;;;;;9.90;3.92;;;;;;;;;;5004741;28;20241;-71
2022/05/14 13:17:13;;;;;;;9.55;3.60;;;;;;;;;;5003335;28;20183;-71
2022/05/14 13:19:46;;;;;;;14.07;4.77;;;;;;;;;;4998752;28;20746;-71
2022/05/14 13:22:25;;;;;;;14.65;4.70;;;;;;;;;;5003361;28;20217;-71
2022/05/14 13:24:51;;;;;;;11.15;4.50;;;;;;;;;;5007020;28;20898;-71
2022/05/14 13:27:26;;;;;;;11.95;4.45;;;;;;;;;;5003020;28;20214;-71
2022/05/14 13:29:58;;;;;;;8.35;4.88;;;;;;;;;;5005225;28;20217;-71
2022/05/14 13:32:24;;;;;;;14.80;4.53;;;;;;;;;;5004658;28;20271;-71
2022/05/14 13:37:34;;;;;;;9.57;4.13;;;;;;;;;;5004003;28;20233;-71
2022/05/14 13:40:21;;;;;;;13.18;4.07;;;;;;;;;;5003814;28;20198;-71
2022/05/14 13:42:49;;;;;;;10.35;4.00;;;;;;;;;;5002527;28;20828;-71
2022/05/14 13:45:31;;;;;;;10.45;4.55;;;;;;;;;;5009853;28;20190;-71
2022/05/14 13:48:01;;;;;;;8.95;4.63;;;;;;;;;;5002988;28;20217;-71
2022/05/14 13:50:32;;;;;;;10.02;5.07;;;;;;;;;;5011552;28;20260;-70
2022/05/14 13:52:57;;;;;;;10.68;4.65;;;;;;;;;;5002668;28;20266;-71
2022/05/14 13:55:31;;;;;;;9.65;4.60;;;;;;;;;;5000322;28;20660;-71
2022/05/14 13:57:58;;;;;;;10.98;4.70;;;;;;;;;;5001621;28;20190;-71
2022/05/14 14:00:25;;;;;;;11.02;4.78;;;;;;;;;;5006608;28;20206;-71
2022/05/14 14:03:01;;;;;;;10.02;3.90;;;;;;;;;;5001592;28;20185;-71
2022/05/14 14:05:27;;;;;;;11.35;3.95;;;;;;;;;;5003689;28;20265;-71
2022/05/14 14:07:52;;;;;;;13.60;4.72;;;;;;;;;;5001515;28;20206;-71
2022/05/14 14:10:19;;;;;;;10.10;4.03;;;;;;;;;;5005524;28;20201;-71
2022/05/14 14:12:45;;;;;;;13.52;4.47;;;;;;;;;;5005945;28;20424;-71
2022/05/14 14:15:11;;;;;;;8.07;4.05;;;;;;;;;;5001656;28;20237;-71
2022/05/14 14:17:36;;;;;;;13.10;4.93;;;;;;;;;;5002412;28;20178;-71
2022/05/14 14:20:03;;;;;;;10.25;4.40;;;;;;;;;;5003905;28;20212;-71
2022/05/14 14:22:28;;;;;;;13.82;4.10;;;;;;;;;;5004005;28;20182;-71
2022/05/14 14:24:54;;;;;;;11.05;4.43;;;;;;;;;;5000113;28;20276;-71
2022/05/14 14:27:19;;;;;;;13.15;4.80;;;;;;;;;;5013753;28;20590;-71
2022/05/14 14:29:44;;;;;;;10.70;4.50;;;;;;;;;;5004241;28;20640;-71
2022/05/14 14:32:10;;;;;;;11.43;3.83;;;;;;;;;;5000966;28;20447;-71
2022/05/14 14:34:35;;;;;;;15.73;5.28;;;;;;;;;;5002721;28;20606;-71
2022/05/14 14:37:00;;;;;;;13.13;4.27;;;;;;;;;;5002160;28;20664;-71
2022/05/14 14:39:26;;;;;;;11.48;4.90;;;;;;;;;;5002001;28;20450;-71
2022/05/14 14:41:51;;;;;;;13.90;4.50;;;;;;;;;;5001703;28;20202;-71
2022/05/14 14:44:16;;;;;;;10.20;3.90;;;;;;;;;;5003210;28;20181;-71
2022/05/14 14:46:41;;;;;;;12.30;4.72;;;;;;;;;;4999834;28;20530;-72
2022/05/14 14:49:08;;;;;;;13.65;4.28;;;;;;;;;;5006154;28;20564;-71
2022/05/14 14:51:34;;;;;;;12.50;4.80;;;;;;;;;;5004654;28;20214;-71
2022/05/14 14:53:59;;;;;;;9.40;4.32;;;;;;;;;;5002845;28;20217;-71
2022/05/14 14:56:24;;;;;;;13.73;4.73;;;;;;;;;;5004379;28;20280;-70
2022/05/14 14:58:50;;;;;;;11.65;4.28;;;;;;;;;;5010536;28;21421;-70